createdAt,value
2023-03-06T00:01:01.889Z,77.26
2023-03-06T00:03:30.047Z,77.24
2023-03-06T00:05:58.876Z,77.21
2023-03-06T00:08:29.115Z,77.01
2023-03-06T00:10:57.911Z,77.12
2023-03-06T00:13:29.879Z,77.32
2023-03-06T00:16:03.190Z,77.28
2023-03-06T00:18:31.082Z,77.28
2023-03-06T00:20:59.279Z,77.43
2023-03-06T00:23:27.918Z,77.47
2023-03-06T00:25:55.874Z,77.51
2023-03-06T00:28:23.970Z,77.64
2023-03-06T00:30:51.916Z,77.63
2023-03-06T00:33:19.821Z,77.94
2023-03-06T00:35:47.748Z,77.97
2023-03-06T00:38:15.774Z,77.98
2023-03-06T00:40:43.716Z,78.01
2023-03-06T00:43:12.108Z,78.00
2023-03-06T00:45:39.967Z,78.11
2023-03-06T00:48:10.811Z,77.96
2023-03-06T00:50:38.629Z,77.93
2023-03-06T00:53:06.401Z,77.98
2023-03-06T00:55:34.377Z,78.01
2023-03-06T00:58:02.199Z,78.39
2023-03-06T01:00:30.133Z,78.30
2023-03-06T01:02:58.219Z,78.26
2023-03-06T01:05:26.610Z,78.18
2023-03-06T01:07:54.819Z,78.27
2023-03-06T01:10:23.021Z,78.44
2023-03-06T01:12:51.018Z,78.47
2023-03-06T01:15:20.029Z,78.51
2023-03-06T01:17:51.775Z,78.64
2023-03-06T01:20:19.675Z,78.53
2023-03-06T01:22:47.475Z,78.78
2023-03-06T01:25:15.404Z,78.94
2023-03-06T01:27:43.951Z,79.35
2023-03-06T01:30:13.328Z,79.64
2023-03-06T01:32:41.200Z,79.64
2023-03-06T01:35:10.026Z,79.52
2023-03-06T01:37:39.292Z,79.77
2023-03-06T01:40:11.273Z,79.79
2023-03-06T01:42:39.562Z,79.99
2023-03-06T01:45:27.588Z,79.82
2023-03-06T01:47:55.383Z,80.12
2023-03-06T01:50:23.244Z,80.21
2023-03-06T01:52:57.393Z,80.18
2023-03-06T01:55:32.529Z,80.28
2023-03-06T01:58:05.671Z,80.12
2023-03-06T02:00:33.846Z,79.99
2023-03-06T02:03:14.060Z,79.79
2023-03-06T02:05:44.146Z,79.79
2023-03-06T02:08:17.343Z,79.79
2023-03-06T02:11:11.286Z,80.00
2023-03-06T02:13:40.430Z,80.18
2023-03-06T02:16:10.192Z,80.22
2023-03-06T02:18:41.761Z,80.23
2023-03-06T02:21:13.108Z,80.14
2023-03-06T02:23:50.627Z,80.18
2023-03-06T02:26:19.704Z,80.42
2023-03-06T02:28:47.653Z,80.43
2023-03-06T02:31:28.096Z,80.33
2023-03-06T02:34:26.754Z,80.53
2023-03-06T02:37:08.886Z,80.56
2023-03-06T02:39:44.800Z,80.37
2023-03-06T02:42:25.918Z,80.35
2023-03-06T02:44:58.605Z,80.43
2023-03-06T02:47:26.563Z,80.65
2023-03-06T02:49:55.524Z,80.56
2023-03-06T02:52:23.905Z,80.32
2023-03-06T02:54:51.686Z,80.29
2023-03-06T02:57:19.764Z,80.33
2023-03-06T02:59:47.608Z,80.49
2023-03-06T03:02:16.737Z,80.59
2023-03-06T03:04:45.325Z,80.79
2023-03-06T03:07:13.433Z,81.16
2023-03-06T03:09:41.464Z,81.44
2023-03-06T03:12:09.744Z,81.63
2023-03-06T03:14:37.543Z,81.78
2023-03-06T03:17:05.547Z,82.00
2023-03-06T03:19:33.351Z,82.17
2023-03-06T03:22:01.605Z,82.03
2023-03-06T03:24:29.567Z,82.06
2023-03-06T03:26:57.626Z,81.91
2023-03-06T03:29:25.694Z,81.84
2023-03-06T03:31:53.733Z,81.57
2023-03-06T03:34:25.371Z,81.14
2023-03-06T03:36:54.733Z,80.90
2023-03-06T03:39:22.981Z,80.82
2023-03-06T03:41:50.884Z,80.88
2023-03-06T03:44:20.281Z,80.94
2023-03-06T03:46:50.745Z,81.08
2023-03-06T03:49:21.601Z,81.20
2023-03-06T03:51:49.515Z,81.28
2023-03-06T03:54:17.993Z,81.29
2023-03-06T03:56:47.275Z,81.14
2023-03-06T03:59:19.523Z,81.10
2023-03-06T04:01:56.113Z,80.89
2023-03-06T04:04:24.980Z,80.69
2023-03-06T04:06:53.751Z,80.75
2023-03-06T04:09:21.962Z,80.63
2023-03-06T04:11:50.018Z,80.73
2023-03-06T04:14:17.892Z,80.72
2023-03-06T04:16:45.893Z,80.64
2023-03-06T04:19:13.788Z,80.49
2023-03-06T04:21:41.554Z,80.48
2023-03-06T04:24:09.757Z,80.51
2023-03-06T04:26:37.610Z,80.67
2023-03-06T04:29:06.088Z,80.91
2023-03-06T04:31:34.340Z,81.57
2023-03-06T04:34:02.513Z,82.01
2023-03-06T04:36:33.532Z,82.26
2023-03-06T04:39:13.850Z,82.41
2023-03-06T04:41:42.509Z,82.54
2023-03-06T04:44:10.683Z,82.49
2023-03-06T04:46:38.792Z,82.50
2023-03-06T04:49:07.231Z,82.44
2023-03-06T04:51:36.845Z,82.24
2023-03-06T04:54:05.127Z,82.25
2023-03-06T04:56:34.432Z,82.34
2023-03-06T04:59:04.180Z,81.87
2023-03-06T05:01:32.000Z,81.83
2023-03-06T05:03:59.800Z,81.72
2023-03-06T05:06:27.671Z,81.75
2023-03-06T05:08:55.535Z,81.84
2023-03-06T05:11:23.567Z,81.80
2023-03-06T05:13:51.655Z,81.65
2023-03-06T05:16:19.466Z,81.54
2023-03-06T05:18:50.169Z,81.76
2023-03-06T05:21:18.479Z,81.78
2023-03-06T05:23:46.275Z,81.91
2023-03-06T05:26:15.912Z,81.94
2023-03-06T05:28:43.840Z,82.07
2023-03-06T05:31:12.037Z,81.99
2023-03-06T05:33:40.015Z,82.03
2023-03-06T05:36:09.769Z,81.98
2023-03-06T05:38:37.625Z,81.98
2023-03-06T05:41:05.472Z,81.94
2023-03-06T05:43:33.293Z,82.04
2023-03-06T05:46:07.082Z,82.04
2023-03-06T05:48:37.486Z,82.03
2023-03-06T05:51:06.372Z,81.87
2023-03-06T05:53:34.293Z,81.90
2023-03-06T05:56:06.452Z,81.93
2023-03-06T05:58:35.443Z,81.84
2023-03-06T06:01:11.563Z,81.86
2023-03-06T06:03:39.721Z,81.88
2023-03-06T06:06:10.666Z,81.96
2023-03-06T06:08:39.034Z,82.03
2023-03-06T06:11:09.904Z,82.02
2023-03-06T06:13:38.759Z,81.92
2023-03-06T06:16:16.465Z,81.99
2023-03-06T06:18:44.532Z,81.93
2023-03-06T06:21:14.755Z,82.01
2023-03-06T06:23:42.807Z,82.05
2023-03-06T06:26:11.238Z,82.12
2023-03-06T06:28:39.020Z,82.23
2023-03-06T06:31:12.567Z,82.18
2023-03-06T06:33:41.314Z,82.11
2023-03-06T06:36:21.821Z,82.24
2023-03-06T06:38:50.198Z,82.39
2023-03-06T06:41:53.041Z,82.50
2023-03-06T06:44:08.603Z,82.68
2023-03-06T06:49:26.306Z,82.82
2023-03-06T06:51:54.207Z,82.89
2023-03-06T06:54:22.407Z,82.87
2023-03-06T06:56:51.156Z,82.80
2023-03-06T06:59:19.256Z,82.79
2023-03-06T07:01:47.236Z,82.87
2023-03-06T07:04:15.754Z,82.82
2023-03-06T07:06:45.076Z,82.68
2023-03-06T07:09:13.605Z,82.71
2023-03-06T07:11:42.167Z,82.79
2023-03-06T07:14:09.947Z,82.86
2023-03-06T07:16:37.800Z,82.89
2023-03-06T07:19:06.778Z,82.86
2023-03-06T07:21:34.960Z,82.80
2023-03-06T07:24:02.724Z,82.74
2023-03-06T07:26:32.780Z,82.64
2023-03-06T07:29:03.899Z,82.64
2023-03-06T07:31:32.688Z,82.62
2023-03-06T07:34:01.922Z,82.62
2023-03-06T07:36:31.178Z,82.82
2023-03-06T07:38:58.951Z,82.68
2023-03-06T07:41:26.845Z,82.69
2023-03-06T07:43:54.651Z,82.88
2023-03-06T07:46:22.464Z,82.77
2023-03-06T07:48:50.240Z,82.71
2023-03-06T07:51:21.834Z,82.59
2023-03-06T07:53:50.018Z,82.61
2023-03-06T07:56:17.849Z,82.42
2023-03-06T07:58:47.873Z,82.39
2023-03-06T08:01:23.476Z,82.40
2023-03-06T08:03:52.139Z,82.24
2023-03-06T08:06:26.583Z,82.30
2023-03-06T08:08:56.440Z,82.25
2023-03-06T08:11:30.448Z,82.13
2023-03-06T08:14:00.175Z,82.20
2023-03-06T08:16:30.700Z,82.17
2023-03-06T08:18:58.957Z,82.13
2023-03-06T08:21:28.376Z,81.90
2023-03-06T08:23:56.874Z,81.86
2023-03-06T08:26:28.303Z,81.64
2023-03-06T08:28:59.157Z,81.51
2023-03-06T08:31:31.188Z,81.37
2023-03-06T08:34:04.332Z,81.46
2023-03-06T08:36:33.015Z,81.47
2023-03-06T08:39:01.263Z,81.17
2023-03-06T08:41:30.199Z,81.20
2023-03-06T08:43:58.655Z,81.04
2023-03-06T08:46:29.733Z,81.08
2023-03-06T08:48:58.170Z,81.09
2023-03-06T08:51:26.717Z,81.09
2023-03-06T08:53:56.718Z,80.92
2023-03-06T08:56:31.197Z,80.71
2023-03-06T08:59:01.588Z,80.63
2023-03-06T09:01:34.751Z,80.66
2023-03-06T09:04:07.083Z,80.46
2023-03-06T09:06:40.929Z,80.16
2023-03-06T09:09:09.520Z,79.77
2023-03-06T09:11:37.367Z,79.53
2023-03-06T09:14:06.109Z,79.33
2023-03-06T09:16:34.079Z,78.93
2023-03-06T09:19:02.062Z,78.78
2023-03-06T09:21:30.029Z,78.79
2023-03-06T09:23:59.643Z,78.87
2023-03-06T09:26:39.540Z,78.56
2023-03-06T09:29:12.621Z,78.28
2023-03-06T09:31:40.597Z,78.63
2023-03-06T09:34:08.482Z,78.47
2023-03-06T09:36:53.351Z,78.10
2023-03-06T09:39:24.362Z,77.73
2023-03-06T09:41:52.676Z,77.98
2023-03-06T09:44:26.205Z,77.39
2023-03-06T09:47:22.953Z,77.55
2023-03-06T09:49:50.770Z,76.76
2023-03-06T09:52:45.980Z,76.57
2023-03-06T09:55:27.110Z,76.43
2023-03-06T09:58:07.169Z,76.13
2023-03-06T10:00:45.619Z,76.05
2023-03-06T10:03:39.788Z,76.10
2023-03-06T10:06:22.553Z,75.77
2023-03-06T10:09:06.095Z,76.05
2023-03-06T10:11:49.521Z,75.41
2023-03-06T10:14:40.141Z,75.23
2023-03-06T10:17:17.741Z,75.44
2023-03-06T10:19:49.549Z,75.13
2023-03-06T10:23:05.386Z,75.12
2023-03-06T10:26:01.202Z,74.44
2023-03-06T10:28:46.616Z,74.76
2023-03-06T10:31:27.043Z,75.14
2023-03-06T10:34:05.294Z,75.00
2023-03-06T10:36:33.087Z,74.61
2023-03-06T10:39:14.081Z,74.41
2023-03-06T10:41:42.530Z,74.17
2023-03-06T10:44:13.491Z,73.51
2023-03-06T10:46:47.973Z,73.23
2023-03-06T10:49:30.996Z,73.17
2023-03-06T10:52:09.683Z,72.32
2023-03-06T10:54:42.286Z,72.59
2023-03-06T10:57:31.865Z,72.46
2023-03-06T11:00:05.655Z,72.65
2023-03-06T11:02:41.120Z,72.20
2023-03-06T11:05:20.832Z,72.37
2023-03-06T11:07:59.538Z,71.76
2023-03-06T11:10:30.642Z,71.53
2023-03-06T11:13:07.482Z,70.76
2023-03-06T11:15:35.952Z,70.67
2023-03-06T11:18:08.322Z,70.49
2023-03-06T11:20:52.426Z,70.62
2023-03-06T11:23:44.311Z,70.68
2023-03-06T11:26:17.999Z,69.92
2023-03-06T11:29:16.230Z,68.82
2023-03-06T11:32:14.812Z,68.44
2023-03-06T11:34:51.040Z,68.19
2023-03-06T11:37:53.991Z,68.84
2023-03-06T11:40:59.027Z,67.84
2023-03-06T11:43:37.688Z,67.00
2023-03-06T11:46:12.352Z,67.67
2023-03-06T11:48:53.510Z,67.36
2023-03-06T11:51:35.720Z,67.40
2023-03-06T11:54:04.077Z,67.15
2023-03-06T11:56:39.536Z,67.59
2023-03-06T11:59:26.476Z,66.72
2023-03-06T12:02:15.606Z,66.93
2023-03-06T12:05:01.378Z,66.99
2023-03-06T12:07:35.019Z,67.21
2023-03-06T12:10:23.954Z,67.29
2023-03-06T12:13:10.821Z,67.51
2023-03-06T12:16:22.866Z,66.81
2023-03-06T12:19:12.535Z,66.38
2023-03-06T12:21:55.706Z,66.17
2023-03-06T12:24:48.466Z,66.19
2023-03-06T12:27:47.185Z,65.52
2023-03-06T12:30:36.577Z,65.16
2023-03-06T12:33:12.945Z,65.30
2023-03-06T12:36:04.741Z,64.11
2023-03-06T12:38:59.116Z,63.74
2023-03-06T12:42:06.789Z,63.23
2023-03-06T12:44:47.489Z,62.92
2023-03-06T12:47:21.661Z,63.06
2023-03-06T12:50:17.045Z,63.23
2023-03-06T12:52:48.132Z,61.81
2023-03-06T12:55:23.122Z,62.66
2023-03-06T12:57:52.794Z,62.70
2023-03-06T13:00:32.560Z,61.42
2023-03-06T13:03:23.394Z,61.22
2023-03-06T13:06:30.981Z,60.53
2023-03-06T13:09:40.073Z,60.52
2023-03-06T13:12:38.756Z,60.94
2023-03-06T13:15:39.105Z,61.26
2023-03-06T13:18:22.232Z,61.23
2023-03-06T13:20:57.636Z,62.02
2023-03-06T13:23:37.306Z,61.40
2023-03-06T13:26:25.773Z,61.84
2023-03-06T13:28:57.822Z,61.33
2023-03-06T13:31:36.479Z,61.20
2023-03-06T13:34:31.961Z,61.06
2023-03-06T13:37:18.509Z,60.11
2023-03-06T13:39:55.308Z,61.09
2023-03-06T13:42:37.338Z,60.87
2023-03-06T13:45:08.409Z,61.14
2023-03-06T13:48:02.862Z,61.15
2023-03-06T13:50:44.657Z,61.25
2023-03-06T13:53:36.922Z,62.00
2023-03-06T13:56:34.903Z,62.77
2023-03-06T13:59:46.081Z,63.42
2023-03-06T14:02:39.668Z,64.31
2023-03-06T14:05:15.525Z,64.72
2023-03-06T14:07:47.431Z,64.90
2023-03-06T14:10:22.180Z,65.00
2023-03-06T14:12:49.923Z,65.11
2023-03-06T14:15:46.855Z,65.16
2023-03-06T14:18:30.965Z,65.25
2023-03-06T14:21:02.782Z,64.68
2023-03-06T14:23:38.108Z,64.55
2023-03-06T14:26:24.947Z,64.38
2023-03-06T14:28:52.667Z,64.45
2023-03-06T14:31:28.477Z,64.15
2023-03-06T14:34:03.411Z,63.50
2023-03-06T14:36:42.036Z,63.53
2023-03-06T14:39:36.134Z,63.31
2023-03-06T14:42:22.235Z,63.36
2023-03-06T14:45:19.895Z,63.49
2023-03-06T14:47:53.390Z,62.80
2023-03-06T14:50:34.275Z,62.80
2023-03-06T14:53:33.367Z,61.59
2023-03-06T14:56:06.779Z,61.97
2023-03-06T14:58:48.268Z,62.45
2023-03-06T15:01:16.559Z,62.54
2023-03-06T15:03:55.039Z,62.84
2023-03-06T15:06:40.363Z,63.80
2023-03-06T15:09:16.712Z,65.40
2023-03-06T15:11:53.777Z,67.46
2023-03-06T15:14:29.639Z,68.49
2023-03-06T15:17:40.586Z,69.94
2023-03-06T15:21:14.122Z,69.77
2023-03-06T15:23:45.603Z,69.20
2023-03-06T15:26:33.968Z,69.06
2023-03-06T15:29:13.783Z,68.95
2023-03-06T15:31:46.188Z,69.07
2023-03-06T15:34:23.603Z,69.12
2023-03-06T15:36:55.725Z,68.77
2023-03-06T15:39:39.904Z,68.25
2023-03-06T15:42:21.017Z,67.96
2023-03-06T15:45:03.289Z,68.10
2023-03-06T15:47:31.577Z,68.01
2023-03-06T15:49:59.309Z,67.62
2023-03-06T15:52:27.176Z,67.73
2023-03-06T15:54:55.097Z,68.28
2023-03-06T15:57:29.284Z,70.16
2023-03-06T16:00:00.207Z,71.87
2023-03-06T16:02:28.120Z,72.88
2023-03-06T16:04:56.149Z,73.06
2023-03-06T16:07:23.913Z,73.43
2023-03-06T16:09:52.155Z,73.91
2023-03-06T16:12:22.781Z,74.09
2023-03-06T16:14:50.610Z,74.27
2023-03-06T16:17:18.441Z,74.21
2023-03-06T16:19:46.236Z,74.29
2023-03-06T16:22:14.542Z,74.43
2023-03-06T16:24:43.276Z,74.61
2023-03-06T16:27:19.152Z,74.64
2023-03-06T16:29:47.036Z,74.82
2023-03-06T16:32:14.930Z,74.82
2023-03-06T16:34:42.731Z,75.17
2023-03-06T16:37:13.549Z,75.29
2023-03-06T16:39:41.477Z,75.50
2023-03-06T16:42:09.332Z,75.63
2023-03-06T16:44:37.115Z,75.75
2023-03-06T16:47:05.114Z,76.05
2023-03-06T16:49:32.913Z,76.22
2023-03-06T16:52:00.712Z,76.19
2023-03-06T16:54:28.495Z,76.26
2023-03-06T16:56:56.377Z,76.74
2023-03-06T16:59:25.242Z,76.60
2023-03-06T17:01:53.027Z,76.83
2023-03-06T17:04:20.865Z,76.87
2023-03-06T17:06:48.671Z,76.91
2023-03-06T17:09:16.746Z,76.93
2023-03-06T17:11:46.853Z,77.13
2023-03-06T17:14:14.990Z,76.76
2023-03-06T17:16:42.949Z,76.70
2023-03-06T17:19:15.227Z,76.94
2023-03-06T17:21:44.313Z,77.58
2023-03-06T17:24:12.120Z,77.75
2023-03-06T17:26:40.243Z,77.88
2023-03-06T17:29:09.546Z,77.97
2023-03-06T17:31:37.438Z,78.18
2023-03-06T17:34:05.278Z,78.21
2023-03-06T17:36:33.541Z,78.20
2023-03-06T17:39:03.392Z,78.16
2023-03-06T17:41:32.843Z,78.06
2023-03-06T17:44:01.785Z,77.87
2023-03-06T17:46:34.698Z,77.89
2023-03-06T17:49:03.383Z,77.95
2023-03-06T17:51:31.140Z,77.93
2023-03-06T17:53:58.996Z,77.95
2023-03-06T17:56:27.516Z,78.01
2023-03-06T17:58:57.167Z,78.02
2023-03-06T18:01:28.474Z,78.05
2023-03-06T18:03:58.618Z,78.26
2023-03-06T18:06:30.083Z,78.23
2023-03-06T18:08:58.453Z,78.18
2023-03-06T18:11:27.174Z,78.28
2023-03-06T18:13:55.052Z,78.40
2023-03-06T18:16:26.003Z,78.41
2023-03-06T18:18:56.472Z,78.40
2023-03-06T18:21:26.293Z,78.45
2023-03-06T18:23:54.204Z,78.48
2023-03-06T18:26:26.697Z,78.53
2023-03-06T18:28:58.238Z,78.51
2023-03-06T18:31:33.759Z,78.74
2023-03-06T18:34:09.864Z,78.77
2023-03-06T18:36:38.870Z,79.04
2023-03-06T18:39:10.281Z,79.01
2023-03-06T18:41:38.321Z,78.97
2023-03-06T18:44:06.542Z,78.93
2023-03-06T18:46:37.821Z,78.97
2023-03-06T18:49:06.763Z,79.11
2023-03-06T18:51:35.424Z,79.23
2023-03-06T18:54:05.893Z,79.11
2023-03-06T18:56:35.062Z,79.14
2023-03-06T18:59:05.069Z,79.33
2023-03-06T19:01:34.082Z,79.08
2023-03-06T19:04:04.698Z,78.97
2023-03-06T19:06:32.689Z,79.01
2023-03-06T19:09:02.144Z,78.80
2023-03-06T19:11:31.972Z,78.82
2023-03-06T19:14:00.761Z,78.81
2023-03-06T19:16:31.218Z,78.76
2023-03-06T19:18:59.354Z,78.69
2023-03-06T19:21:28.811Z,78.72
2023-03-06T19:23:57.522Z,78.73
2023-03-06T19:26:26.961Z,78.85
2023-03-06T19:28:55.114Z,78.84
2023-03-06T19:31:27.053Z,78.80
2023-03-06T19:33:56.830Z,78.77
2023-03-06T19:36:33.283Z,78.89
2023-03-06T19:39:05.125Z,79.02
2023-03-06T19:41:33.661Z,78.99
2023-03-06T19:44:03.340Z,79.10
2023-03-06T19:46:32.216Z,79.15
2023-03-06T19:49:09.940Z,79.30
2023-03-06T19:51:38.523Z,79.23
2023-03-06T19:54:06.307Z,79.29
2023-03-06T19:56:34.131Z,79.58
2023-03-06T19:59:02.129Z,79.56
2023-03-06T20:01:29.991Z,79.65
2023-03-06T20:03:59.776Z,79.71
2023-03-06T20:06:33.576Z,80.00
2023-03-06T20:09:06.032Z,80.26
2023-03-06T20:11:34.267Z,80.30
2023-03-06T20:14:04.705Z,80.55
2023-03-06T20:16:34.205Z,80.74
2023-03-06T20:19:02.532Z,80.92
2023-03-06T20:21:35.373Z,81.00
2023-03-06T20:24:05.271Z,81.30
2023-03-06T20:26:34.778Z,81.54
2023-03-06T20:29:03.196Z,81.48
2023-03-06T20:31:31.103Z,81.65
2023-03-06T20:34:00.507Z,81.71
2023-03-06T20:36:35.985Z,81.73
2023-03-06T20:39:08.998Z,81.75
2023-03-06T20:41:37.945Z,81.97
2023-03-06T20:44:13.412Z,81.93
2023-03-06T20:46:41.983Z,81.89
2023-03-06T20:49:13.264Z,81.91
2023-03-06T20:51:42.342Z,81.96
2023-03-06T20:54:13.982Z,81.90
2023-03-06T20:56:46.028Z,81.72
2023-03-06T20:59:14.326Z,81.72
2023-03-06T21:01:45.056Z,81.79
2023-03-06T21:04:14.813Z,81.84
2023-03-06T21:06:46.772Z,81.64
2023-03-06T21:09:17.078Z,81.83
2023-03-06T21:11:45.937Z,81.97
2023-03-06T21:14:14.966Z,81.91
2023-03-06T21:16:43.931Z,82.16
2023-03-06T21:19:12.487Z,82.03
2023-03-06T21:21:40.358Z,81.93
2023-03-06T21:24:08.538Z,82.03
2023-03-06T21:26:36.441Z,82.13
2023-03-06T21:29:05.092Z,82.00
2023-03-06T21:31:33.559Z,82.15
2023-03-06T21:34:04.524Z,82.35
2023-03-06T21:36:34.068Z,82.44
2023-03-06T21:39:02.269Z,82.60
2023-03-06T21:41:32.174Z,82.47
2023-03-06T21:44:04.975Z,82.34
2023-03-06T21:46:34.810Z,82.31
2023-03-06T21:49:05.244Z,82.41
2023-03-06T21:51:34.414Z,82.42
2023-03-06T21:54:02.897Z,82.43
2023-03-06T21:56:33.055Z,82.52
2023-03-06T21:59:01.345Z,82.64
2023-03-06T22:01:30.184Z,82.72
2023-03-06T22:03:59.940Z,82.75
2023-03-06T22:06:30.196Z,82.69
2023-03-06T22:09:00.301Z,82.55
2023-03-06T22:11:31.404Z,82.40
2023-03-06T22:13:59.648Z,82.57
2023-03-06T22:16:28.206Z,82.60
2023-03-06T22:18:56.432Z,82.73
2023-03-06T22:21:25.242Z,82.87
2023-03-06T22:23:59.392Z,82.84
2023-03-06T22:26:29.206Z,82.77
2023-03-06T22:28:57.178Z,82.79
2023-03-06T22:31:28.535Z,82.95
2023-03-06T22:34:00.067Z,83.21
2023-03-06T22:36:32.813Z,83.27
2023-03-06T22:39:02.752Z,83.50
2023-03-06T22:41:31.266Z,83.73
2023-03-06T22:44:02.510Z,83.98
2023-03-06T22:46:32.244Z,84.30
2023-03-06T22:49:01.289Z,84.27
2023-03-06T22:51:29.748Z,84.34
2023-03-06T22:53:58.256Z,84.30
2023-03-06T22:56:26.318Z,84.29
2023-03-06T22:58:54.258Z,84.40
2023-03-06T23:01:25.868Z,84.45
2023-03-06T23:03:58.001Z,84.44
2023-03-06T23:06:31.526Z,84.61
2023-03-06T23:09:07.566Z,84.59
2023-03-06T23:11:53.624Z,84.53
2023-03-06T23:14:40.267Z,84.80
2023-03-06T23:17:26.904Z,84.89
2023-03-06T23:20:13.740Z,84.70
2023-03-06T23:23:00.221Z,84.76
2023-03-06T23:25:44.298Z,84.63
2023-03-06T23:28:12.343Z,84.82
2023-03-06T23:30:42.209Z,84.90
2023-03-06T23:33:11.072Z,85.05
2023-03-06T23:35:39.116Z,84.75
2023-03-06T23:38:07.206Z,83.82
2023-03-06T23:40:35.336Z,83.91
2023-03-06T23:43:03.864Z,83.96
2023-03-06T23:45:32.318Z,83.80
2023-03-06T23:48:00.236Z,83.89
2023-03-06T23:50:28.124Z,83.77
2023-03-06T23:52:55.916Z,83.75
2023-03-06T23:55:23.735Z,83.67
2023-03-06T23:57:51.663Z,83.76
